Hampton Municipal Airport
Friday 10:55 PM
Weather Clear
Temperature 32°
Dew Point 23°
Feels Like 32°
Relative Humidity 69
%
Visibility 10
mi
Pressure 1009.8
mb
Wind Direction
Wind Speed Calm
Last Hour Precip 0.00
"
KHPT 270455Z AUTO 00000KT 10SM CLR 00/M05 A2982 RMK AO2

Recent Observations

Time Present Weather Temp DP Feels RH% Vsby Pressure Ceiling Direction Speed Gust 1h Precip
10:55PM
VFR
32° 23° 32° 69
%
10
mi
1009.8
mb
None Calm 0.00"
KHPT 270455Z AUTO 00000KT 10SM CLR 00/M05 A2982 RMK AO2
10:35PM
VFR
34° 23° 34° 64
%
10
mi
1010.2
mb
None Calm 0.00"
KHPT 270435Z AUTO 00000KT 10SM CLR 01/M05 A2983 RMK AO2
10:15PM
VFR
36° 23° 36° 60
%
10
mi
1010.2
mb
12000
ft
Calm 0.00"
KHPT 270415Z AUTO 00000KT 10SM BKN120 02/M05 A2983 RMK AO2
9:55PM
VFR
36° 23° 36° 60
%
10
mi
1010.2
mb
12000
ft
Calm 0.00"
KHPT 270355Z AUTO 00000KT 10SM OVC120 02/M05 A2983 RMK AO2
9:35PM
VFR
36° 23° 36° 60
%
10
mi
1010.5
mb
12000
ft
Calm 0.00"
KHPT 270335Z AUTO 00000KT 10SM BKN120 02/M05 A2984 RMK AO2
9:15PM
VFR
37° 23° 37° 56
%
10
mi
1010.5
mb
11000
ft
Calm 0.00"
KHPT 270315Z AUTO 00000KT 10SM OVC110 03/M05 A2984 RMK AO2
8:55PM
VFR
36° 21° 36° 55
%
10
mi
1010.8
mb
10000
ft
Calm 0.00"
KHPT 270255Z AUTO 00000KT 10SM OVC100 02/M06 A2985 RMK AO2
8:35PM
VFR
36° 21° 36° 55
%
10
mi
1010.5
mb
11000
ft
Calm 0.00"
KHPT 270235Z AUTO 00000KT 10SM OVC110 02/M06 A2984 RMK AO2
8:15PM
VFR
36° 21° 36° 55
%
10
mi
1011.2
mb
11000
ft
Calm 0.00"
KHPT 270215Z AUTO 00000KT 10SM OVC110 02/M06 A2986 RMK AO2
7:55PM
VFR
36° 21° 36° 55
%
10
mi
1011.5
mb
11000
ft
Calm 0.00"
KHPT 270155Z AUTO 00000KT 10SM OVC110 02/M06 A2987 RMK AO2
7:35PM
VFR
34° 21° 34° 60
%
10
mi
1011.2
mb
10000
ft
Calm 0.00"
KHPT 270135Z AUTO 00000KT 10SM OVC100 01/M06 A2986 RMK AO2
7:15PM
VFR
34° 19° 34° 55
%
10
mi
1011.5
mb
10000
ft
Calm 0.00"
KHPT 270115Z AUTO 00000KT 10SM BKN100 01/M07 A2987 RMK AO2
6:55PM
VFR
34° 19° 34° 55
%
10
mi
1011.9
mb
None Calm 0.00"
KHPT 270055Z AUTO 00000KT 10SM CLR 01/M07 A2988 RMK AO2
6:35PM
VFR
34° 19° 34° 55
%
10
mi
1012.2
mb
None Calm 0.00"
KHPT 270035Z AUTO 00000KT 10SM SCT120 01/M07 A2989 RMK AO2
6:15PM
VFR
36° 19° 36° 51
%
10
mi
1012.2
mb
None Calm 0.00"
KHPT 270015Z AUTO 00000KT 10SM SCT120 02/M07 A2989 RMK AO2
5:55PM
VFR
36° 19° 36° 51
%
10
mi
1012.2
mb
None Calm 0.00"
KHPT 262355Z AUTO 00000KT 10SM SCT120 02/M07 A2989 RMK AO2
5:35PM
VFR
36° 19° 36° 51
%
10
mi
1011.9
mb
None Calm 0.00"
KHPT 262335Z AUTO 00000KT 10SM SCT095 02/M07 A2988 RMK AO2
5:15PM
VFR
36° 19° 36° 51
%
10
mi
1012.2
mb
9500
ft
Calm 0.00"
KHPT 262315Z AUTO 00000KT 10SM BKN095 02/M07 A2989 RMK AO2
4:55PM
VFR
36° 18° 36° 48
%
10
mi
1012.5
mb
12000
ft
Calm 0.00"
KHPT 262255Z AUTO 00000KT 10SM SCT095 BKN120 02/M08 A2990 RMK AO2
4:35PM
VFR
36° 18° 36° 48
%
10
mi
1012.9
mb
None Calm 0.00"
KHPT 262235Z AUTO 00000KT 10SM CLR 02/M08 A2991 RMK AO2
Click here to show this page without METARs/TAFs included